Time;durP1;ratioP1;P1;durP2;ratioP2;P2;SDS_P1;SDS_P2;PMS_P1;PMS_P2;Temp;Humidity;BMP_temperature;BMP_pressure;BME280_temperature;BME280_humidity;BME280_pressure;Samples;Min_cycle;Max_cycle;Signal;HPM_P1;HPM_P2
2021/09/06 00:02:03;;;;;;;23.65;16.38;;;15.30;97.50;;;15.57;85.58;101165.56;4988006;28;20513;-66
2021/09/06 00:04:31;;;;;;;25.20;15.38;;;15.30;97.50;;;15.57;85.22;101157.34;4987884;28;20066;-66
2021/09/06 00:06:59;;;;;;;25.60;15.70;;;15.30;97.50;;;15.55;85.32;101159.41;4988031;28;20568;-66
2021/09/06 00:09:26;;;;;;;30.40;16.55;;;15.30;97.50;;;15.54;85.33;101165.97;4988112;28;20065;-66
2021/09/06 00:11:54;;;;;;;26.77;15.80;;;15.20;97.40;;;15.52;85.22;101154.34;4987933;28;20050;-66
2021/09/06 00:14:21;;;;;;;24.15;15.75;;;15.20;97.40;;;15.52;85.10;101161.72;4987907;28;20142;-66
2021/09/06 00:16:48;;;;;;;26.95;16.23;;;15.20;97.40;;;15.50;85.22;101164.66;4988205;28;20062;-66
2021/09/06 00:19:16;;;;;;;27.92;15.82;;;15.20;97.40;;;15.48;85.39;101161.28;4988068;28;20074;-66
2021/09/06 00:21:43;;;;;;;26.88;16.10;;;15.20;97.60;;;15.47;85.48;101166.97;4987702;28;20524;-66
2021/09/06 00:24:12;;;;;;;29.38;16.30;;;15.20;97.70;;;15.43;85.94;101167.34;4988141;28;20514;-66
2021/09/06 00:26:39;;;;;;;25.73;15.60;;;15.20;97.80;;;15.43;85.68;101166.50;4989130;28;20073;-66
2021/09/06 00:29:07;;;;;;;23.58;15.43;;;15.10;97.70;;;15.40;85.41;101162.28;4990501;28;20143;-66
2021/09/06 00:31:34;;;;;;;28.15;17.70;;;15.10;97.50;;;15.40;85.53;101165.03;4991159;28;20046;-66
2021/09/06 00:34:02;;;;;;;25.88;15.73;;;15.10;97.80;;;15.40;85.48;101169.66;4990285;28;20058;-66
2021/09/06 00:36:29;;;;;;;27.17;15.90;;;15.10;97.90;;;15.37;85.36;101170.06;4990057;28;20046;-66
2021/09/06 00:38:57;;;;;;;25.75;16.33;;;15.10;97.70;;;15.33;85.56;101166.03;4990062;28;20133;-66
2021/09/06 00:41:26;;;;;;;25.15;16.30;;;15.10;97.80;;;15.31;85.55;101162.66;4989842;28;20050;-66
2021/09/06 00:43:55;;;;;;;26.70;16.65;;;15.00;97.80;;;15.30;85.61;101169.16;4989900;28;20069;-66
2021/09/06 00:46:23;;;;;;;27.50;17.10;;;15.00;97.90;;;15.29;85.59;101173.81;4984773;28;20070;-66
2021/09/06 00:48:51;;;;;;;27.40;15.50;;;15.00;98.00;;;15.29;85.49;101171.06;4971871;28;20054;-66
2021/09/06 00:51:18;;;;;;;25.77;15.85;;;15.00;97.80;;;15.28;85.38;101168.53;4971692;28;20038;-67
2021/09/06 00:53:46;;;;;;;26.00;15.25;;;15.00;97.60;;;15.27;85.19;101169.56;4970356;28;20403;-66
2021/09/06 00:56:14;;;;;;;25.48;16.35;;;14.90;97.80;;;15.24;85.52;101165.31;4970455;28;20053;-66
2021/09/06 00:58:45;;;;;;;26.95;16.55;;;14.90;98.00;;;15.22;85.74;101171.00;4969836;28;20046;-66
2021/09/06 01:01:12;;;;;;;25.88;16.27;;;14.90;98.20;;;15.21;85.24;101163.84;4971476;28;20050;-66
2021/09/06 01:03:40;;;;;;;25.85;16.15;;;14.90;97.90;;;15.18;85.54;101164.22;4970179;28;20141;-66
2021/09/06 01:06:41;;;;;;;29.98;16.50;;;14.90;98.00;;;15.17;85.65;101162.53;4986504;28;20063;-66
2021/09/06 01:09:37;;;;;;;28.95;17.40;;;14.90;98.20;;;15.16;85.89;101168.22;4971449;28;20042;-66
2021/09/06 01:12:18;;;;;;;30.30;16.88;;;14.90;98.10;;;15.14;85.99;101170.31;4972179;28;20581;-66
2021/09/06 01:14:49;;;;;;;26.50;16.63;;;14.90;98.40;;;15.15;85.84;101163.78;4969745;28;20109;-66
2021/09/06 01:17:17;;;;;;;26.50;16.38;;;14.90;98.20;;;15.13;85.79;101161.22;4970045;28;20133;-66
2021/09/06 01:19:48;;;;;;;27.55;17.08;;;14.90;98.30;;;15.12;86.07;101162.28;4969615;28;20062;-66
2021/09/06 01:22:16;;;;;;;28.67;17.42;;;14.90;98.50;;;15.12;85.89;101159.53;4982540;28;20047;-66
2021/09/06 01:25:05;;;;;;;28.00;17.33;;;14.90;98.40;;;15.11;85.95;101163.31;4990399;28;20050;-66
2021/09/06 01:27:34;;;;;;;28.45;17.45;;;14.90;98.50;;;15.11;85.87;101163.31;4990741;28;20148;-67
2021/09/06 01:30:01;;;;;;;29.50;17.20;;;14.80;98.30;;;15.08;85.79;101165.59;4990390;28;20077;-66
2021/09/06 01:32:32;;;;;;;28.30;17.77;;;14.80;98.20;;;15.08;85.75;101163.72;4989064;28;20704;-66
2021/09/06 01:35:00;;;;;;;30.85;17.60;;;14.70;98.40;;;15.08;85.82;101165.59;4988976;28;20050;-66
2021/09/06 01:37:27;;;;;;;26.83;16.90;;;14.80;98.50;;;15.03;85.83;101168.94;4988656;28;20429;-67
2021/09/06 01:39:56;;;;;;;26.25;16.30;;;14.70;98.50;;;15.04;86.02;101173.38;4988927;28;20664;-66
2021/09/06 01:42:25;;;;;;;25.90;16.52;;;14.70;98.60;;;14.99;85.94;101173.13;4989705;28;20052;-66
2021/09/06 01:44:57;;;;;;;27.53;16.33;;;14.70;98.50;;;14.98;85.79;101179.66;4988980;28;20054;-66
2021/09/06 01:47:30;;;;;;;25.83;16.63;;;14.70;98.50;;;14.96;85.59;101176.25;4988857;28;20062;-66
2021/09/06 01:49:58;;;;;;;29.90;17.08;;;14.70;98.30;;;14.95;85.57;101175.44;4988187;28;20058;-66
2021/09/06 01:52:27;;;;;;;28.63;16.80;;;14.60;98.20;;;14.93;85.72;101188.47;4988196;28;20049;-66
2021/09/06 01:54:59;;;;;;;27.10;16.60;;;14.60;98.40;;;14.92;85.54;101183.19;4988320;28;20062;-66
2021/09/06 01:57:27;;;;;;;25.67;16.70;;;14.60;98.30;;;14.92;85.51;101180.44;4988490;28;20465;-66
2021/09/06 01:59:56;;;;;;;26.50;15.98;;;14.60;98.60;;;14.92;85.71;101185.94;4979135;28;20058;-66
2021/09/06 02:02:26;;;;;;;28.25;17.35;;;14.50;98.40;;;14.90;85.57;101183.38;4968970;28;20482;-66
2021/09/06 02:04:53;;;;;;;28.17;16.90;;;14.50;98.30;;;14.88;85.74;101181.91;4968790;28;20081;-66
2021/09/06 02:07:21;;;;;;;27.52;16.67;;;14.50;98.40;;;14.87;85.72;101183.78;4968975;28;20051;-66
2021/09/06 02:09:48;;;;;;;28.90;16.60;;;14.50;98.10;;;14.86;85.20;101185.66;4970272;28;20049;-66
2021/09/06 02:12:16;;;;;;;25.77;15.88;;;14.50;98.10;;;14.86;85.42;101188.41;4968293;28;20105;-66
2021/09/06 02:14:47;;;;;;;28.17;16.40;;;14.50;98.10;;;14.84;85.54;101189.66;4968258;28;20053;-66
2021/09/06 02:17:17;;;;;;;25.77;16.52;;;14.50;98.30;;;14.83;85.54;101188.81;4968905;28;20069;-66
2021/09/06 02:19:44;;;;;;;27.60;16.80;;;14.50;98.40;;;14.82;85.63;101192.59;4968413;28;20621;-66
2021/09/06 02:22:12;;;;;;;28.00;16.98;;;14.50;98.40;;;14.81;85.51;101190.03;4967856;28;20058;-66
2021/09/06 02:24:52;;;;;;;27.17;17.27;;;14.50;98.50;;;14.78;85.66;101191.28;4968693;28;20145;-66
2021/09/06 02:27:24;;;;;;;27.23;16.88;;;14.50;98.40;;;14.78;85.46;101184.97;4968694;28;20525;-66
2021/09/06 02:29:54;;;;;;;31.63;17.58;;;14.40;98.20;;;14.76;85.40;101184.31;4968554;28;20058;-66
2021/09/06 02:32:25;;;;;;;29.98;17.25;;;14.50;98.30;;;14.75;85.62;101179.88;4968108;28;20043;-66
2021/09/06 02:34:58;;;;;;;28.50;17.25;;;14.40;98.50;;;14.75;85.56;101183.44;4970109;28;20060;-66
2021/09/06 02:37:28;;;;;;;26.23;16.73;;;14.40;98.20;;;14.74;85.37;101176.28;4968635;28;20054;-66
2021/09/06 02:39:56;;;;;;;26.45;16.42;;;14.40;98.30;;;14.71;85.42;101190.38;4971945;28;20133;-66
2021/09/06 02:42:24;;;;;;;28.00;17.08;;;14.40;98.20;;;14.71;85.33;101184.88;4984333;28;20080;-66
2021/09/06 02:44:54;;;;;;;30.42;17.13;;;14.30;98.20;;;14.69;85.27;101192.44;4968184;28;20273;-66
2021/09/06 02:47:21;;;;;;;28.23;17.30;;;14.40;98.30;;;14.69;85.03;101192.44;4969612;28;20489;-66
2021/09/06 02:50:03;;;;;;;31.45;16.85;;;14.30;98.10;;;14.68;85.16;101193.50;4966425;28;20444;-66
2021/09/06 02:52:34;;;;;;;25.95;16.58;;;14.30;98.30;;;14.66;85.04;101188.22;4993887;23;20058;-68
2021/09/06 02:55:03;;;;;;;26.80;16.08;;;14.30;98.60;;;14.65;85.43;101191.16;4987021;28;20569;-67
2021/09/06 02:57:31;;;;;;;28.65;17.45;;;14.30;98.60;;;14.61;85.33;101189.84;4986869;28;20593;-67
2021/09/06 02:59:58;;;;;;;29.33;17.00;;;14.30;98.10;;;14.61;84.98;101195.34;4986929;28;20498;-67
2021/09/06 03:02:28;;;;;;;30.27;17.65;;;14.30;98.10;;;14.60;85.13;101189.00;4986587;28;20525;-67
2021/09/06 03:04:59;;;;;;;30.00;16.95;;;14.20;98.50;;;14.56;85.01;101184.06;4986675;28;20120;-67
2021/09/06 03:07:27;;;;;;;27.52;16.58;;;14.20;98.10;;;14.54;85.20;101181.50;4986791;28;20054;-67
2021/09/06 03:09:54;;;;;;;28.25;16.85;;;14.20;98.20;;;14.55;85.04;101187.88;4986944;28;20077;-67
2021/09/06 03:12:21;;;;;;;26.17;16.30;;;14.20;98.50;;;14.54;84.94;101188.91;4975179;28;20046;-67
2021/09/06 03:14:49;;;;;;;27.20;16.15;;;14.20;98.40;;;14.51;85.13;101189.28;4967770;28;20083;-67
2021/09/06 03:17:27;;;;;;;25.80;16.58;;;14.10;98.40;;;14.50;85.02;101182.13;4967712;28;20522;-68
2021/09/06 03:20:00;;;;;;;25.80;16.23;;;14.10;98.50;;;14.47;84.89;101186.94;4967623;28;20125;-68
2021/09/06 03:22:29;;;;;;;26.25;16.65;;;14.10;98.40;;;14.46;84.51;101182.50;4967608;28;20053;-68
2021/09/06 03:24:57;;;;;;;27.63;17.00;;;14.00;98.20;;;14.44;84.39;101183.72;4967583;28;20049;-67
2021/09/06 03:27:25;;;;;;;26.40;16.45;;;14.00;98.10;;;14.42;84.10;101183.94;4967715;28;20105;-67
2021/09/06 03:29:52;;;;;;;27.13;16.63;;;13.90;98.40;;;14.42;84.43;101196.78;4968991;28;20804;-67
2021/09/06 03:32:19;;;;;;;26.83;17.02;;;13.90;98.70;;;14.39;84.50;101192.53;4967077;28;20085;-67
2021/09/06 03:34:47;;;;;;;26.73;16.67;;;13.90;98.60;;;14.37;84.58;101189.13;4967217;28;20061;-67
2021/09/06 03:37:16;;;;;;;27.58;17.17;;;13.90;98.40;;;14.36;84.57;101187.44;4967167;28;20133;-67
2021/09/06 03:39:43;;;;;;;28.83;16.80;;;13.90;98.40;;;14.36;84.60;101187.44;4968597;28;20499;-67
2021/09/06 03:42:11;;;;;;;26.67;16.80;;;13.90;98.40;;;14.35;84.33;101187.63;4968385;28;20058;-67
2021/09/06 03:44:43;;;;;;;28.00;17.10;;;13.90;98.60;;;14.33;84.24;101187.81;4983293;28;20050;-67
2021/09/06 03:47:10;;;;;;;28.10;16.02;;;13.80;98.60;;;14.32;84.43;101185.25;4968887;28;20811;-67
2021/09/06 03:49:38;;;;;;;27.10;16.52;;;13.80;98.60;;;14.29;84.30;101191.97;4967641;28;20047;-67
2021/09/06 03:52:08;;;;;;;25.92;16.30;;;13.80;98.50;;;14.26;84.31;101186.91;4967273;28;20085;-67
2021/09/06 03:54:36;;;;;;;26.60;16.85;;;13.80;98.40;;;14.22;84.64;101185.56;4967797;28;20063;-67
2021/09/06 03:57:06;;;;;;;;;;;13.80;98.60;;;14.23;84.84;101198.22;4968191;28;20053;-67
2021/09/06 03:59:38;;;;;;;28.60;15.65;;;13.80;98.70;;;14.21;84.48;101189.38;4967821;28;19932;-67
2021/09/06 04:02:19;;;;;;;27.73;16.52;;;13.80;98.50;;;14.17;84.27;101196.28;4970844;28;20057;-67
2021/09/06 04:04:53;;;;;;;32.05;15.52;;;13.70;98.40;;;14.18;84.37;101200.69;4971241;28;20061;-67
2021/09/06 04:11:19;;;;;;;25.13;15.68;;;13.70;98.50;;;14.10;85.23;101195.34;4934339;28;20070;-67
2021/09/06 04:13:49;;;;;;;30.40;16.63;;;13.80;98.90;;;14.12;84.83;101202.31;4971249;28;20070;-68
2021/09/06 04:16:27;;;;;;;25.80;15.63;;;13.80;98.60;;;14.11;85.24;101200.63;4970976;28;20050;-69
2021/09/06 04:19:12;;;;;;;27.48;15.63;;;13.70;99.00;;;14.10;85.08;101204.38;4971066;28;20058;-67
2021/09/06 04:21:46;;;;;;;27.65;15.63;;;13.70;98.70;;;14.10;84.54;101209.03;4972159;28;20530;-66
2021/09/06 04:24:25;;;;;;;25.83;15.63;;;13.70;98.50;;;14.08;84.39;101201.84;4972779;28;20429;-67
2021/09/06 04:27:26;;;;;;;26.38;15.40;;;13.70;98.50;;;14.04;84.61;101210.63;4972796;28;20054;-66
2021/09/06 04:30:02;;;;;;;26.55;15.30;;;13.70;98.40;;;14.04;84.40;101214.22;4975254;28;20569;-66
2021/09/06 04:32:38;;;;;;;24.88;15.70;;;13.60;98.40;;;14.02;84.19;101213.56;4971706;28;20059;-67
2021/09/06 04:35:14;;;;;;;24.48;14.82;;;13.60;98.40;;;14.00;84.38;101212.06;4972586;28;20101;-67
2021/09/06 04:38:02;;;;;;;25.33;15.13;;;13.60;98.50;;;13.99;84.05;101222.16;4971203;28;20054;-67
2021/09/06 04:44:17;;;;;;;28.38;14.98;;;13.50;98.50;;;13.99;83.96;101224.91;4971655;28;20047;-66
2021/09/06 05:00:35;;;;;;;23.55;15.15;;;13.40;98.20;;;13.88;83.02;101228.09;4990227;28;20046;-66
2021/09/06 05:06:36;;;;;;;25.63;14.82;;;13.40;98.30;;;13.83;83.18;101231.38;4965528;28;20141;-66
2021/09/06 05:09:17;;;;;;;23.88;14.57;;;13.30;97.90;;;13.83;83.15;101233.28;4987959;28;20051;-66
2021/09/06 05:12:23;;;;;;;;;;;;;;;;;;;;;
2021/09/06 05:15:13;;;;;;;26.60;15.10;;;13.30;97.90;;;13.82;83.45;101231.56;4964864;28;20530;-66
2021/09/06 05:21:20;;;;;;;25.00;14.65;;;13.40;98.30;;;13.83;83.83;101246.97;4925233;28;20061;-66
2021/09/06 05:24:20;;;;;;;26.88;14.63;;;13.40;97.90;;;13.80;83.83;101247.34;4988088;28;20058;-66
2021/09/06 05:27:23;;;;;;;25.55;14.65;;;13.40;97.90;;;13.83;84.04;101246.97;4974667;28;20046;-65
2021/09/06 05:30:05;;;;;;;26.17;15.48;;;13.50;98.20;;;13.83;84.34;101242.34;4975691;28;20153;-66
2021/09/06 05:32:50;;;;;;;26.35;15.73;;;13.50;98.00;;;13.85;84.32;101242.16;4976767;28;20059;-65
2021/09/06 05:35:31;;;;;;;25.88;15.35;;;13.60;97.90;;;13.87;84.19;101249.13;4985779;28;20057;-65
2021/09/06 05:38:14;;;;;;;26.33;15.65;;;13.60;97.90;;;13.89;84.20;101251.69;4981623;28;20054;-66
2021/09/06 05:41:51;;;;;;;24.30;14.77;;;13.60;97.70;;;13.88;84.90;101250.00;4975708;28;20125;-65
2021/09/06 05:45:10;;;;;;;23.63;14.32;;;13.70;98.20;;;13.90;85.14;101250.66;4913464;29;20397;-66
2021/09/06 05:48:24;;;;;;;24.08;14.55;;;13.80;97.90;;;13.92;85.35;101245.84;4906092;29;20064;-66
2021/09/06 05:54:23;;;;;;;26.25;14.85;;;13.90;98.00;;;13.97;85.72;101254.31;4919240;28;20057;-67
2021/09/06 05:56:51;;;;;;;28.55;17.08;;;14.00;97.80;;;13.98;85.92;101253.28;4987466;28;20089;-65
2021/09/06 05:59:24;;;;;;;25.85;15.55;;;14.00;97.80;;;13.98;85.87;101256.03;4999868;28;20526;-66
2021/09/06 06:01:52;;;;;;;26.83;15.85;;;14.10;97.80;;;13.99;86.69;101260.47;4984143;28;20046;-66
2021/09/06 06:04:21;;;;;;;29.25;16.02;;;14.20;97.70;;;14.03;87.05;101259.06;4973919;28;20075;-67
2021/09/06 06:06:56;;;;;;;28.95;16.73;;;14.20;97.80;;;14.08;87.30;101264.78;4979354;28;20050;-66
2021/09/06 06:09:24;;;;;;;35.22;16.70;;;14.30;98.20;;;14.10;87.57;101259.13;4981013;28;20061;-67
2021/09/06 06:11:51;;;;;;;29.35;16.88;;;14.40;97.90;;;14.14;87.78;101265.06;4977577;28;20104;-67
2021/09/06 06:14:25;;;;;;;29.35;16.67;;;14.50;97.90;;;14.19;88.13;101262.63;4986204;28;20049;-67
2021/09/06 06:16:57;;;;;;;32.42;16.80;;;14.60;97.80;;;14.23;87.92;101259.31;4985928;28;20054;-67
2021/09/06 06:19:32;;;;;;;32.88;16.70;;;14.60;97.60;;;14.28;88.23;101261.50;4978773;28;20074;-67
2021/09/06 06:22:18;;;;;;;38.40;17.30;;;14.70;97.70;;;14.30;88.50;101269.50;4979900;28;20065;-67
2021/09/06 06:25:09;;;;;;;29.40;16.20;;;14.80;97.50;;;14.28;88.92;101261.50;4981020;28;20046;-68
2021/09/06 06:27:43;;;;;;;29.38;16.92;;;14.90;97.30;;;14.32;89.08;101262.81;4976230;28;20306;-67
2021/09/06 06:30:14;;;;;;;30.05;16.63;;;15.00;97.20;;;14.40;89.02;101259.09;4974860;28;20054;-67
2021/09/06 06:32:43;;;;;;;30.92;18.27;;;15.00;97.30;;;14.43;89.15;101258.69;4975684;28;20147;-67
2021/09/06 06:35:23;;;;;;;28.73;16.65;;;15.10;97.00;;;14.46;89.63;101256.44;4974199;28;20098;-67
2021/09/06 06:37:50;;;;;;;34.58;16.85;;;15.20;96.90;;;14.50;89.88;101265.13;4983449;28;20042;-67
2021/09/06 06:40:17;;;;;;;29.35;16.33;;;15.30;96.90;;;14.54;89.67;101268.31;4987013;28;20113;-67
2021/09/06 06:42:45;;;;;;;32.25;16.90;;;15.40;96.60;;;14.57;89.88;101259.78;4977501;28;20129;-66
2021/09/06 06:45:17;;;;;;;26.83;16.00;;;15.50;96.40;;;14.58;90.50;101266.94;4975632;28;20078;-65
2021/09/06 06:47:46;;;;;;;27.50;17.27;;;15.60;96.20;;;14.63;90.71;101268.06;4987011;28;20042;-65
2021/09/06 06:50:14;;;;;;;32.08;18.23;;;15.70;96.00;;;14.67;90.70;101276.75;4976483;28;20043;-63
2021/09/06 06:52:44;;;;;;;28.20;16.63;;;15.80;95.60;;;14.72;91.11;101266.06;4974668;28;20053;-64
2021/09/06 06:55:12;;;;;;;31.65;16.98;;;15.90;95.70;;;14.74;92.23;101266.72;4976399;28;20042;-64
2021/09/06 06:57:40;;;;;;;29.23;17.17;;;16.00;95.90;;;14.79;92.13;101266.97;4986288;28;20069;-64
2021/09/06 07:00:10;;;;;;;30.30;17.15;;;16.10;95.70;;;14.82;92.85;101274.78;4975415;28;20058;-65
2021/09/06 07:02:41;;;;;;;29.85;17.20;;;16.20;95.60;;;14.90;92.15;101275.72;4978261;28;20374;-64
2021/09/06 07:05:10;;;;;;;33.17;18.33;;;16.30;95.00;;;14.96;92.11;101280.41;4986741;28;20133;-65
2021/09/06 07:07:43;;;;;;;30.08;16.65;;;16.40;94.70;;;15.03;92.21;101282.19;4978961;28;20585;-64
2021/09/06 07:10:12;;;;;;;31.17;16.88;;;16.50;94.50;;;15.09;92.67;101286.03;4977645;28;20053;-64
2021/09/06 07:12:40;;;;;;;31.48;17.42;;;16.70;94.50;;;15.16;92.88;101288.88;4981971;28;20054;-66
2021/09/06 07:15:10;;;;;;;33.38;18.52;;;16.70;94.50;;;15.22;93.36;101291.66;4980679;28;20146;-68
2021/09/06 07:17:38;;;;;;;35.20;18.95;;;16.90;94.40;;;15.31;93.89;101295.13;4986288;28;20145;-67
2021/09/06 07:20:08;;;;;;;31.65;19.45;;;17.00;94.80;;;15.40;93.74;101306.78;4988762;28;20050;-67
2021/09/06 07:22:36;;;;;;;30.63;18.85;;;17.10;94.20;;;15.47;94.17;101294.00;4986459;28;20477;-65
2021/09/06 07:25:06;;;;;;;32.58;18.58;;;17.20;94.30;;;15.55;94.30;101296.59;4989579;28;20042;-67
2021/09/06 07:27:35;;;;;;;31.42;18.98;;;17.30;94.60;;;15.64;93.35;101300.88;4989673;28;20458;-66
2021/09/06 07:30:04;;;;;;;31.25;18.67;;;17.40;93.50;;;15.73;93.33;101306.25;4991398;28;20047;-68
2021/09/06 07:32:32;;;;;;;33.65;19.00;;;17.60;93.30;;;15.79;95.18;101308.22;4985702;28;20058;-66
2021/09/06 07:34:59;;;;;;;33.25;19.60;;;17.60;94.40;;;15.87;94.38;101308.06;4988811;28;20092;-66
2021/09/06 07:37:27;;;;;;;29.45;18.17;;;17.70;93.70;;;15.96;95.13;101303.28;4987595;28;20057;-66
2021/09/06 07:39:54;;;;;;;30.67;18.85;;;17.80;93.70;;;16.02;94.49;101306.03;4987288;28;20054;-65
2021/09/06 07:42:23;;;;;;;31.45;18.25;;;18.00;93.10;;;16.11;94.00;101308.66;4983311;28;20101;-66
2021/09/06 07:44:51;;;;;;;28.05;17.42;;;18.10;92.70;;;16.20;94.68;101304.66;4986733;28;20046;-65
2021/09/06 07:47:18;;;;;;;29.23;17.58;;;18.20;92.70;;;16.32;94.56;101316.78;4989070;28;20046;-66
2021/09/06 07:49:49;;;;;;;29.65;18.23;;;18.40;92.60;;;16.42;96.12;101320.00;4989472;28;20668;-66
2021/09/06 07:52:16;;;;;;;31.92;18.73;;;18.50;93.60;;;16.53;94.30;101323.25;4986063;28;20062;-67
2021/09/06 07:54:44;;;;;;;31.02;18.35;;;18.60;91.70;;;16.60;94.00;101324.09;4985009;28;20088;-66
2021/09/06 07:57:11;;;;;;;30.60;19.02;;;18.70;91.40;;;16.73;94.98;101324.16;4976872;28;20089;-65
2021/09/06 07:59:40;;;;;;;32.00;18.63;;;18.90;92.30;;;16.83;93.86;101328.47;4967837;28;20532;-65
2021/09/06 08:02:08;;;;;;;32.58;18.70;;;19.00;91.20;;;16.89;90.14;101330.41;4970633;28;20047;-66
2021/09/06 08:04:39;;;;;;;;;;;19.00;88.30;;;16.91;88.62;101331.03;4969397;28;20051;-65
2021/09/06 08:07:06;;;;;;;32.00;18.77;;;19.10;86.60;;;16.97;87.46;101338.47;4980543;28;19933;-66
2021/09/06 08:09:34;;;;;;;30.35;18.27;;;19.20;86.00;;;17.12;84.73;101330.03;4988519;28;20125;-65
2021/09/06 08:12:03;;;;;;;29.75;17.85;;;19.30;84.50;;;17.24;83.87;101333.88;4982042;28;20489;-65
2021/09/06 08:14:31;;;;;;;29.50;17.58;;;19.40;84.00;;;17.37;86.13;101342.13;4986336;28;20061;-66
2021/09/06 08:16:59;;;;;;;30.75;17.85;;;19.40;85.30;;;17.44;83.27;101339.41;4985781;28;20050;-67
2021/09/06 08:19:29;;;;;;;27.77;15.85;;;19.60;83.70;;;17.57;84.46;101341.31;4986537;28;20050;-66
2021/09/06 08:21:57;;;;;;;28.40;16.88;;;19.70;84.60;;;17.66;82.09;101344.72;4998581;28;20050;-65
2021/09/06 08:24:25;;;;;;;26.60;16.27;;;19.80;82.60;;;17.67;80.87;101339.00;4979544;28;20097;-66
2021/09/06 08:26:53;;;;;;;27.63;15.73;;;19.80;82.00;;;17.75;79.91;101343.44;4983420;28;20050;-66
2021/09/06 08:29:21;;;;;;;28.63;16.27;;;19.80;80.90;;;17.77;79.59;101346.84;4986114;28;20046;-67
2021/09/06 08:31:48;;;;;;;28.33;16.13;;;19.90;81.00;;;17.79;80.68;101339.22;4983945;28;20137;-65
2021/09/06 08:34:18;;;;;;;26.67;15.18;;;19.90;81.70;;;17.94;82.04;101337.09;4986168;28;20074;-66
2021/09/06 08:36:48;;;;;;;25.33;14.52;;;20.00;82.80;;;17.94;82.15;101337.09;4985669;28;20058;-65
2021/09/06 08:39:16;;;;;;;23.73;13.48;;;20.00;82.30;;;18.07;79.78;101349.19;4987643;28;20118;-65
2021/09/06 08:41:44;;;;;;;23.27;14.05;;;20.10;80.50;;;18.09;76.85;101349.81;4978519;28;20035;-66
2021/09/06 08:44:11;;;;;;;22.10;13.75;;;20.10;78.60;;;18.18;78.91;101348.50;4966813;28;20177;-66
2021/09/06 08:46:39;;;;;;;26.00;14.55;;;20.20;80.50;;;18.39;80.99;101341.03;4981260;28;20057;-65
2021/09/06 08:49:06;;;;;;;24.25;14.25;;;20.30;82.20;;;18.41;78.19;101345.31;4991488;28;20038;-66
2021/09/06 08:51:35;;;;;;;25.73;15.13;;;20.40;80.30;;;18.47;79.48;101349.94;4999684;23;20054;-68
2021/09/06 08:54:04;;;;;;;23.05;14.73;;;20.40;81.40;;;18.35;78.05;101347.00;4985785;28;20047;-68
2021/09/06 08:56:33;;;;;;;24.88;15.05;;;20.40;79.50;;;18.38;76.12;101354.00;4977616;28;20054;-69
2021/09/06 08:59:02;;;;;;;26.52;14.27;;;20.40;78.60;;;18.44;78.08;101357.78;4970160;28;20429;-68
2021/09/06 09:01:39;;;;;;;22.98;14.00;;;20.40;79.40;;;18.51;77.74;101351.19;4983397;28;20054;-68
2021/09/06 09:04:20;;;;;;;25.27;13.85;;;20.50;79.90;;;18.56;83.17;101353.28;4989599;28;20101;-68
2021/09/06 09:07:12;;;;;;;22.98;13.32;;;20.50;82.60;;;18.55;77.63;101362.63;4971693;28;20545;-68
2021/09/06 09:09:58;;;;;;;23.30;13.38;;;20.60;78.80;;;18.60;75.48;101357.34;4971425;28;20092;-68
2021/09/06 09:12:45;;;;;;;21.25;13.50;;;20.60;77.50;;;18.63;76.00;101358.78;4986125;28;20441;-68
2021/09/06 09:15:55;;;;;;;21.50;13.23;;;20.70;77.70;;;18.63;77.30;101359.63;4967802;28;20047;-68
2021/09/06 09:18:35;;;;;;;23.13;13.30;;;20.60;77.60;;;18.62;72.88;101357.97;4968654;28;20459;-68
2021/09/06 09:21:26;;;;;;;21.83;12.60;;;20.70;74.70;;;18.60;71.51;101364.72;4969244;28;20410;-68
2021/09/06 09:24:36;;;;;;;24.27;13.93;;;20.70;73.80;;;18.70;68.25;101360.47;4968067;28;20050;-68
2021/09/06 09:27:29;;;;;;;21.88;13.73;;;20.70;72.40;;;18.83;68.81;101365.13;4948969;28;20051;-68
2021/09/06 09:30:02;;;;;;;21.98;12.95;;;20.70;73.00;;;18.80;70.18;101361.91;4993176;28;20046;-68
2021/09/06 09:32:38;;;;;;;23.17;13.93;;;20.70;73.60;;;18.79;69.38;101368.47;4988739;28;20054;-68
2021/09/06 09:35:18;;;;;;;22.48;13.65;;;20.80;72.90;;;18.94;72.58;101364.44;4988776;28;20054;-67
2021/09/06 09:37:45;;;;;;;26.05;15.05;;;20.80;75.50;;;19.04;72.05;101366.72;4989605;28;20050;-68
2021/09/06 09:40:18;;;;;;;26.65;14.05;;;20.90;75.60;;;19.12;74.28;101363.69;4989998;28;20057;-68
2021/09/06 09:42:49;;;;;;;25.80;14.50;;;20.90;77.30;;;19.12;73.44;101369.22;4988627;28;20034;-68
2021/09/06 09:45:24;;;;;;;26.08;14.40;;;21.00;76.70;;;19.12;73.99;101357.34;4989287;28;20046;-68
2021/09/06 09:48:14;;;;;;;22.10;14.10;;;21.10;76.70;;;19.08;73.89;101362.44;4986301;28;20058;-68
2021/09/06 09:50:42;;;;;;;27.10;13.77;;;21.10;76.20;;;19.10;73.12;101356.72;4989147;28;20054;-68
2021/09/06 09:53:09;;;;;;;20.15;12.93;;;21.10;75.80;;;19.12;73.32;101369.22;4988062;28;20518;-68
2021/09/06 09:55:42;;;;;;;23.38;13.93;;;21.20;75.80;;;19.23;74.75;101336.44;4988167;28;20038;-68
2021/09/06 09:58:11;;;;;;;20.58;14.00;;;21.20;76.70;;;19.30;73.01;101349.13;4988388;28;20066;-68
2021/09/06 10:00:42;;;;;;;28.70;13.23;;;21.30;75.00;;;19.33;72.62;101348.72;4988291;28;20047;-68
2021/09/06 10:03:13;;;;;;;25.60;14.25;;;21.30;75.00;;;19.37;70.38;101353.78;4987768;28;20053;-68
2021/09/06 10:05:42;;;;;;;21.37;13.27;;;21.40;73.40;;;19.36;71.80;101346.56;4985853;28;20054;-68
2021/09/06 10:08:16;;;;;;;18.63;11.43;;;21.40;74.30;;;19.39;72.28;101351.66;4988470;28;20041;-69
2021/09/06 10:10:46;;;;;;;24.52;13.32;;;21.40;75.10;;;19.44;70.81;101346.28;4989163;28;20135;-66
2021/09/06 10:13:17;;;;;;;23.50;13.00;;;21.50;73.60;;;19.42;71.98;101341.00;4987651;28;20039;-67
2021/09/06 10:15:57;;;;;;;20.88;13.45;;;21.60;74.30;;;19.40;69.38;101350.56;4988530;28;20529;-68
2021/09/06 10:18:26;;;;;;;23.92;14.10;;;21.60;72.40;;;19.45;70.67;101353.53;4988927;28;20136;-67
2021/09/06 10:20:57;;;;;;;23.15;13.75;;;21.60;72.90;;;19.46;69.30;101350.53;4986602;28;20052;-68
2021/09/06 10:23:26;;;;;;;23.40;13.02;;;21.60;72.00;;;19.52;70.95;101355.16;4986723;28;20046;-68
2021/09/06 10:26:09;;;;;;;24.83;13.27;;;21.70;73.40;;;19.52;68.88;101346.88;4988753;28;20046;-68
2021/09/06 10:28:39;;;;;;;24.73;13.32;;;21.70;71.60;;;19.52;67.53;101351.56;5002181;28;20057;-68
2021/09/06 10:31:20;;;;;;;20.03;12.07;;;21.70;70.50;;;19.53;67.53;101356.00;5004244;28;20050;-67
2021/09/06 10:33:59;;;;;;;20.85;12.95;;;21.70;70.30;;;19.49;67.65;101340.94;4972472;28;20041;-67
2021/09/06 10:36:27;;;;;;;20.50;12.57;;;21.70;70.30;;;19.55;67.85;101345.56;4980682;28;20121;-65
2021/09/06 10:39:05;;;;;;;21.33;12.30;;;21.80;70.20;;;19.59;68.41;101345.97;4979686;28;20510;-70
2021/09/06 10:41:46;;;;;;;20.38;12.43;;;21.90;71.40;;;19.63;70.17;101338.94;4984107;28;20052;-68
2021/09/06 10:44:13;;;;;;;24.38;13.57;;;21.90;71.90;;;19.70;70.27;101342.50;4968948;28;20174;-69
2021/09/06 10:46:52;;;;;;;20.25;12.27;;;21.90;71.70;;;19.75;67.06;101341.88;4985157;28;20054;-68
2021/09/06 10:49:25;;;;;;;24.77;14.02;;;22.00;69.20;;;19.75;67.53;101339.09;4988244;28;20422;-68
2021/09/06 10:51:56;;;;;;;20.02;13.00;;;22.10;69.50;;;19.74;65.24;101343.75;4985699;28;20065;-68
2021/09/06 10:54:24;;;;;;;24.15;12.98;;;22.20;67.00;;;19.77;65.15;101337.78;4978175;28;20584;-68
2021/09/06 10:56:53;;;;;;;20.17;11.57;;;22.20;67.20;;;19.81;67.41;101327.13;4986058;28;20074;-68
2021/09/06 10:59:25;;;;;;;;;;;22.20;68.70;;;19.82;66.45;101324.16;4988875;28;20054;-68